createdAt,value
2019-01-18T00:01:25.724Z,55.7
2019-01-18T00:06:31.215Z,55.7
2019-01-18T00:11:36.271Z,55.7
2019-01-18T00:16:41.228Z,56.2
2019-01-18T00:21:46.377Z,55.7
2019-01-18T00:26:51.320Z,55.6
2019-01-18T00:31:55.101Z,55.6
2019-01-18T00:37:01.117Z,55.6
2019-01-18T00:42:06.909Z,55.6
2019-01-18T00:47:13.081Z,56.2
2019-01-18T00:52:19.471Z,55.7
2019-01-18T00:57:25.115Z,55.6
2019-01-18T01:02:30.914Z,55.6
2019-01-18T01:07:36.481Z,55.6
2019-01-18T01:12:41.703Z,55.6
2019-01-18T01:17:47.362Z,55.6
2019-01-18T01:22:52.549Z,55.5
2019-01-18T01:27:58.678Z,55.6
2019-01-18T01:33:03.811Z,55.6
2019-01-18T01:38:09.515Z,55.7
2019-01-18T01:43:15.237Z,55.7
2019-01-18T01:48:21.198Z,55.6
2019-01-18T01:53:27.046Z,55.6
2019-01-18T01:58:32.077Z,55.6
2019-01-18T02:03:38.520Z,55.6
2019-01-18T02:08:44.347Z,55.5
2019-01-18T02:13:48.722Z,56.2
2019-01-18T02:18:54.201Z,55.6
2019-01-18T02:23:59.849Z,55.5
2019-01-18T02:29:05.423Z,55.6
2019-01-18T02:34:11.008Z,55.6
2019-01-18T02:39:16.136Z,55.6
2019-01-18T02:44:21.831Z,55.6
2019-01-18T02:49:27.404Z,55.6
2019-01-18T02:54:33.690Z,56.3
2019-01-18T02:59:39.665Z,55.6
2019-01-18T03:04:45.938Z,55.6
2019-01-18T03:09:51.387Z,55.6
2019-01-18T03:14:56.832Z,55.6
2019-01-18T03:20:02.567Z,55.6
2019-01-18T03:25:07.650Z,55.6
2019-01-18T03:30:23.248Z,55.6
2019-01-18T03:35:18.556Z,55.5
2019-01-18T03:40:24.720Z,55.6
2019-01-18T03:45:30.529Z,55.6
2019-01-18T03:50:30.489Z,55.6
2019-01-18T03:55:35.667Z,55.6
2019-01-18T04:00:39.494Z,55.5
2019-01-18T04:05:44.742Z,55.6
2019-01-18T04:10:50.509Z,55.5
2019-01-18T04:15:55.814Z,55.5
2019-01-18T04:21:00.724Z,55.5
2019-01-18T04:26:06.691Z,55.5
2019-01-18T04:31:11.749Z,55.5
2019-01-18T04:36:17.296Z,56.2
2019-01-18T04:41:22.892Z,55.6
2019-01-18T04:46:27.157Z,55.7
2019-01-18T04:51:32.320Z,55.5
2019-01-18T04:56:37.736Z,55.1
2019-01-18T05:01:42.801Z,54.9
2019-01-18T05:06:48.633Z,54.8
2019-01-18T05:11:54.389Z,54.7
2019-01-18T05:16:59.825Z,54.7
2019-01-18T05:22:05.322Z,54.8
2019-01-18T05:27:11.045Z,54.5
2019-01-18T05:37:20.958Z,54
2019-01-18T05:42:26.953Z,53.5
2019-01-18T05:47:32.913Z,53.3
2019-01-18T05:52:38.579Z,53.3
2019-01-18T05:57:44.595Z,53.1
2019-01-18T06:02:49.471Z,53.1
2019-01-18T06:07:55.136Z,53.2
2019-01-18T06:13:00.926Z,53.2
2019-01-18T06:18:07.230Z,53.1
2019-01-18T06:23:12.360Z,53
2019-01-18T06:28:17.815Z,53
2019-01-18T06:33:23.631Z,53.1
2019-01-18T06:38:29.252Z,53.1
2019-01-18T06:43:35.144Z,53.3
2019-01-18T06:48:40.433Z,53.3
2019-01-18T06:53:45.989Z,53.5
2019-01-18T06:58:51.781Z,53.6
2019-01-18T07:03:56.821Z,54
2019-01-18T07:09:00.652Z,54.3
2019-01-18T07:14:06.206Z,54.5
2019-01-18T07:19:11.741Z,54.4
2019-01-18T07:24:17.545Z,54.5
2019-01-18T07:29:23.191Z,54.3
2019-01-18T07:34:28.381Z,54.4
2019-01-18T07:39:34.388Z,54.3
2019-01-18T07:44:40.361Z,54.4
2019-01-18T07:49:46.267Z,54.2
2019-01-18T07:54:51.420Z,54.4
2019-01-18T07:59:56.472Z,54.5
2019-01-18T08:05:02.077Z,54.6
2019-01-18T08:10:08.251Z,54.6
2019-01-18T08:15:14.357Z,54.6
2019-01-18T08:20:19.503Z,54.7
2019-01-18T08:25:24.661Z,54.5
2019-01-18T08:30:30.620Z,54.4
2019-01-18T08:40:40.737Z,54.7
2019-01-18T08:45:45.949Z,54.6
2019-01-18T08:50:51.444Z,54.6
2019-01-18T08:55:57.027Z,54.3
2019-01-18T09:01:02.171Z,53.8
2019-01-18T09:06:07.865Z,53.7
2019-01-18T09:11:13.372Z,53.7
2019-01-18T09:16:18.530Z,53.6
2019-01-18T09:21:23.769Z,53.6
2019-01-18T09:26:29.448Z,53.5
2019-01-18T09:31:35.072Z,53.4
2019-01-18T09:36:40.657Z,53.5
2019-01-18T09:41:46.719Z,53
2019-01-18T09:46:51.977Z,53
2019-01-18T09:51:57.960Z,52.9
2019-01-18T09:57:03.228Z,53.1
2019-01-18T10:02:08.677Z,53.3
2019-01-18T10:07:14.808Z,53
2019-01-18T10:12:20.639Z,53
2019-01-18T10:17:25.979Z,53.5
2019-01-18T10:22:31.648Z,53.8
2019-01-18T10:27:36.844Z,54.6
2019-01-18T10:32:41.805Z,54.9
2019-01-18T10:37:46.705Z,55.3
2019-01-18T10:42:51.965Z,55.4
2019-01-18T10:47:57.270Z,42
2019-01-18T10:58:07.784Z,44.9
2019-01-18T11:03:14.031Z,44.2
2019-01-18T11:13:22.877Z,45.1
2019-01-18T11:18:28.195Z,45.6
2019-01-18T11:23:33.987Z,46.3
2019-01-18T11:28:39.659Z,47
2019-01-18T11:33:45.507Z,47.9
2019-01-18T11:38:51.067Z,47.9
2019-01-18T11:43:56.251Z,48.3
2019-01-18T11:54:06.338Z,49
2019-01-18T11:59:11.349Z,48.9
2019-01-18T12:04:17.348Z,49
2019-01-18T12:09:22.435Z,49.2
2019-01-18T12:14:28.017Z,49.4
2019-01-18T12:19:33.549Z,49.7
2019-01-18T12:24:39.044Z,49.8
2019-01-18T12:29:45.091Z,49.9
2019-01-18T12:34:50.444Z,50.1
2019-01-18T12:39:56.118Z,50.2
2019-01-18T12:45:03.008Z,50.3
2019-01-18T12:50:09.915Z,50.4
2019-01-18T12:55:15.975Z,50.5
2019-01-18T13:00:21.694Z,50.6
2019-01-18T13:05:28.081Z,50.6
2019-01-18T13:10:33.200Z,50.6
2019-01-18T13:15:40.116Z,50.8
2019-01-18T13:20:45.769Z,51
2019-01-18T13:25:51.463Z,51.1
2019-01-18T13:30:56.631Z,51.1
2019-01-18T13:36:02.769Z,50.9
2019-01-18T13:41:08.266Z,51.2
2019-01-18T13:46:13.791Z,51.4
2019-01-18T13:51:17.392Z,51.9
2019-01-18T13:56:23.004Z,51.2
2019-01-18T14:01:28.699Z,51.2
2019-01-18T14:06:34.383Z,51.8
2019-01-18T14:11:39.702Z,51.3
2019-01-18T14:16:45.673Z,51.3
2019-01-18T14:21:51.323Z,51.4
2019-01-18T14:26:56.933Z,51.4
2019-01-18T14:32:02.119Z,51.4
2019-01-18T14:37:07.431Z,51.5
2019-01-18T14:42:07.887Z,51.5
2019-01-18T14:47:11.923Z,51.5
2019-01-18T14:52:18.292Z,51.4
2019-01-18T14:57:25.713Z,51.5
2019-01-18T15:02:30.733Z,51.5
2019-01-18T15:07:35.989Z,51.6
2019-01-18T15:12:40.934Z,51.8
2019-01-18T15:17:45.973Z,51.8
2019-01-18T15:22:51.681Z,52
2019-01-18T15:27:57.115Z,52
2019-01-18T15:33:09.787Z,51.8
2019-01-18T15:38:05.374Z,51.7
2019-01-18T15:43:10.451Z,51.7
2019-01-18T15:48:15.699Z,51.8
2019-01-18T15:53:20.733Z,51.8
2019-01-18T15:58:26.123Z,51.9
2019-01-18T16:03:31.223Z,52.1
2019-01-18T16:08:37.497Z,52.4
2019-01-18T16:13:43.101Z,52.8
2019-01-18T16:18:48.263Z,52.8
2019-01-18T16:23:53.671Z,52.6
2019-01-18T16:28:58.855Z,52.6
2019-01-18T16:34:03.874Z,52.6
2019-01-18T16:39:09.539Z,52.6
2019-01-18T16:44:15.380Z,52.9
2019-01-18T16:49:21.257Z,52.9
2019-01-18T16:54:27.136Z,53.2
2019-01-18T16:59:33.807Z,53.2
2019-01-18T17:04:39.879Z,53.3
2019-01-18T17:09:45.952Z,53.2
2019-01-18T17:14:51.432Z,53.2
2019-01-18T17:19:56.861Z,53.2
2019-01-18T17:25:02.264Z,53.8
2019-01-18T17:30:08.311Z,54.6
2019-01-18T17:35:20.201Z,54.4
2019-01-18T17:40:26.518Z,54.8
2019-01-18T17:45:32.751Z,54.5
2019-01-18T17:50:38.876Z,54.4
2019-01-18T17:55:45.408Z,54.6
2019-01-18T18:00:51.982Z,54.7
2019-01-18T18:05:58.367Z,55
2019-01-18T18:11:07.081Z,54.8
2019-01-18T18:16:13.794Z,54.8
2019-01-18T18:21:20.427Z,36.1
2019-01-18T18:26:27.019Z,43
2019-01-18T18:31:33.056Z,42.1
2019-01-18T18:36:38.010Z,41.6
2019-01-18T18:41:35.318Z,40.2
2019-01-18T18:46:41.710Z,40
2019-01-18T18:51:48.878Z,40
2019-01-18T18:56:55.069Z,40.4
2019-01-18T19:02:01.114Z,44.6
2019-01-18T19:07:07.486Z,45
2019-01-18T19:12:14.655Z,45.1
2019-01-18T19:17:21.308Z,45.4
2019-01-18T19:22:27.594Z,45.6
2019-01-18T19:27:34.065Z,45.8
2019-01-18T19:32:40.717Z,46.8
2019-01-18T19:37:47.019Z,47.3
2019-01-18T19:42:53.543Z,47.5
2019-01-18T19:47:59.986Z,47.7
2019-01-18T19:53:08.165Z,48
2019-01-18T19:58:14.149Z,48.3
2019-01-18T20:08:24.662Z,48.7
2019-01-18T20:18:35.727Z,49.1
2019-01-18T20:23:42.074Z,49.3
2019-01-18T20:28:48.495Z,49.3
2019-01-18T20:33:54.885Z,50.1
2019-01-18T20:39:01.273Z,49.8
2019-01-18T20:44:07.989Z,49.9
2019-01-18T20:49:14.183Z,49.8
2019-01-18T20:54:21.117Z,49.9
2019-01-18T20:59:27.312Z,50
2019-01-18T21:04:36.124Z,50.6
2019-01-18T21:09:41.762Z,50.6
2019-01-18T21:14:47.199Z,50.5
2019-01-18T21:19:53.013Z,50.7
2019-01-18T21:24:58.648Z,50.7
2019-01-18T21:30:04.464Z,50.4
2019-01-18T21:47:11.736Z,50.2
2019-01-18T21:52:17.684Z,50.3
2019-01-18T21:57:23.011Z,50.8
2019-01-18T22:02:28.925Z,50.7
2019-01-18T22:07:33.798Z,50.9
2019-01-18T22:12:42.230Z,51
2019-01-18T22:17:47.887Z,51
2019-01-18T22:22:53.601Z,51.3
2019-01-18T22:27:59.234Z,51.4
2019-01-18T22:33:05.195Z,51.4
2019-01-18T22:38:10.529Z,52.1
2019-01-18T22:43:15.763Z,53
2019-01-18T22:48:21.423Z,53.1
2019-01-18T22:53:27.257Z,53.1
2019-01-18T22:58:34.775Z,53.3
2019-01-18T23:03:39.922Z,53.2
2019-01-18T23:08:44.965Z,53.8
2019-01-18T23:13:50.401Z,52.9
2019-01-18T23:18:55.737Z,52.6
2019-01-18T23:29:05.717Z,53.4
2019-01-18T23:34:10.907Z,53.4
2019-01-18T23:39:16.578Z,53.3
2019-01-18T23:44:22.110Z,53.4
2019-01-18T23:49:28.037Z,53.3
2019-01-18T23:54:33.757Z,53.3
